Time;durP1;ratioP1;P1;durP2;ratioP2;P2;SDS_P1;SDS_P2;PMS_P1;PMS_P2;Temp;Humidity;BMP_temperature;BMP_pressure;BME280_temperature;BME280_humidity;BME280_pressure;Samples;Min_cycle;Max_cycle;Signal;HPM_P1;HPM_P2
2023/09/02 00:02:16;;;;;;;3.90;1.30;;;16.60;99.90;;;;;;5007576;28;20018;-46
2023/09/02 00:04:42;;;;;;;4.30;1.30;;;16.60;99.90;;;;;;4992633;28;20034;-46
2023/09/02 00:07:07;;;;;;;1.58;1.38;;;16.60;99.90;;;;;;5007750;28;20777;-41
2023/09/02 00:09:33;;;;;;;2.08;1.40;;;16.60;99.90;;;;;;5007087;28;20136;-45
2023/09/02 00:11:58;;;;;;;13.38;8.10;;;16.60;99.90;;;;;;5007645;28;20116;-45
2023/09/02 00:14:24;;;;;;;8.55;6.93;;;16.60;99.90;;;;;;5007675;28;20030;-43
2023/09/02 00:16:49;;;;;;;7.90;6.38;;;16.60;99.90;;;;;;5007867;28;20364;-43
2023/09/02 00:19:15;;;;;;;1.85;1.45;;;16.60;99.90;;;;;;5007524;28;20026;-43
2023/09/02 00:21:41;;;;;;;2.08;1.40;;;16.60;99.90;;;;;;5007155;28;20030;-44
2023/09/02 00:24:06;;;;;;;2.20;1.65;;;16.70;99.90;;;;;;5007407;28;20033;-44
2023/09/02 00:26:32;;;;;;;2.50;1.38;;;16.70;99.90;;;;;;5007210;28;20030;-42
2023/09/02 00:29:00;;;;;;;1.60;1.50;;;16.60;99.90;;;;;;4996281;23;20074;-47
2023/09/02 00:31:26;;;;;;;3.78;1.20;;;16.60;99.90;;;;;;4971131;28;20391;-47
2023/09/02 00:33:52;;;;;;;3.45;1.10;;;16.60;99.90;;;;;;4971610;28;20019;-47
2023/09/02 00:36:18;;;;;;;3.95;0.98;;;16.50;99.90;;;;;;4971567;28;20398;-47
2023/09/02 00:38:44;;;;;;;7.07;1.30;;;16.50;99.90;;;;;;4971485;28;20114;-47
2023/09/02 00:41:16;;;;;;;2.83;1.20;;;16.50;99.90;;;;;;4971611;28;20027;-48
2023/09/02 00:43:42;;;;;;;9.05;1.20;;;16.40;99.90;;;;;;4971783;28;20526;-47
2023/09/02 00:46:09;;;;;;;0.70;0.70;;;16.50;99.90;;;;;;4971442;28;20031;-47
2023/09/02 00:48:36;;;;;;;2.47;0.93;;;16.30;99.90;;;;;;4971262;28;20402;-46
2023/09/02 00:51:01;;;;;;;1.75;0.80;;;16.30;99.90;;;;;;4972599;28;20118;-46
2023/09/02 00:53:28;;;;;;;1.85;1.08;;;16.30;99.90;;;;;;4971243;28;20415;-46
2023/09/02 00:55:53;;;;;;;3.55;1.08;;;16.30;99.90;;;;;;4971387;28;20018;-47
2023/09/02 00:58:19;;;;;;;1.20;1.10;;;16.30;99.90;;;;;;4971230;28;20034;-46
2023/09/02 01:00:46;;;;;;;2.80;1.35;;;16.30;99.90;;;;;;4971319;28;20034;-46
2023/09/02 01:03:12;;;;;;;1.13;1.13;;;16.20;99.90;;;;;;4971167;28;20027;-52
2023/09/02 01:05:38;;;;;;;4.28;0.95;;;16.20;99.90;;;;;;4971471;28;20443;-50
2023/09/02 01:08:05;;;;;;;1.85;1.23;;;16.30;99.90;;;;;;4971067;28;20557;-50
2023/09/02 01:10:34;;;;;;;1.67;0.90;;;16.20;99.90;;;;;;4955402;28;20069;-51
2023/09/02 01:13:01;;;;;;;0.93;0.90;;;16.20;99.90;;;;;;4971036;28;20118;-47
2023/09/02 01:15:26;;;;;;;1.15;1.05;;;16.20;99.90;;;;;;4971130;28;20031;-52
2023/09/02 01:17:52;;;;;;;1.23;0.88;;;16.10;99.90;;;;;;4971181;28;20033;-48
2023/09/02 01:20:19;;;;;;;8.57;1.10;;;16.10;99.90;;;;;;4972318;28;20027;-48
2023/09/02 01:22:58;;;;;;;3.20;1.42;;;16.10;99.90;;;;;;4974645;28;20034;-47
2023/09/02 01:26:02;;;;;;;1.25;0.90;;;16.00;99.90;;;;;;4976181;28;20035;-47
2023/09/02 01:28:31;;;;;;;0.77;0.77;;;16.00;99.90;;;;;;4974048;28;20047;-47
2023/09/02 01:30:59;;;;;;;4.32;1.02;;;16.10;99.90;;;;;;4974380;28;20023;-54
2023/09/02 01:33:27;;;;;;;1.55;1.10;;;16.00;99.90;;;;;;4974553;28;20398;-47
2023/09/02 01:35:54;;;;;;;1.83;1.20;;;16.00;99.90;;;;;;4974787;28;20435;-46
2023/09/02 01:38:24;;;;;;;1.33;1.20;;;15.90;99.90;;;;;;4974570;28;20023;-48
2023/09/02 01:40:51;;;;;;;1.05;0.95;;;15.90;99.90;;;;;;4974501;28;20030;-47
2023/09/02 01:43:20;;;;;;;3.70;1.48;;;15.90;99.90;;;;;;4974218;28;20066;-49
2023/09/02 01:45:46;;;;;;;2.80;1.20;;;15.80;99.90;;;;;;4974568;28;20026;-48
2023/09/02 01:48:12;;;;;;;3.30;1.00;;;15.80;99.90;;;;;;4974306;28;20027;-47
2023/09/02 01:50:40;;;;;;;3.10;1.20;;;15.80;99.90;;;;;;4974275;28;20019;-48
2023/09/02 01:53:08;;;;;;;1.30;1.20;;;15.80;99.90;;;;;;4974203;28;20421;-47
2023/09/02 01:55:35;;;;;;;3.33;1.00;;;15.70;99.90;;;;;;4974209;28;20031;-48
2023/09/02 01:58:01;;;;;;;1.13;1.13;;;15.70;99.90;;;;;;4974185;28;20031;-49
2023/09/02 02:00:27;;;;;;;1.10;1.10;;;15.70;99.90;;;;;;4974116;28;20105;-47
2023/09/02 02:02:55;;;;;;;0.90;0.90;;;15.70;99.90;;;;;;4974074;28;20030;-49
2023/09/02 02:05:33;;;;;;;1.85;1.73;;;15.70;99.90;;;;;;4974282;28;20023;-47
2023/09/02 02:08:03;;;;;;;9.73;1.80;;;15.70;99.90;;;;;;4974050;28;20027;-47
2023/09/02 02:10:32;;;;;;;4.82;1.25;;;15.70;99.90;;;;;;4973955;28;20034;-46
2023/09/02 02:13:01;;;;;;;2.95;1.13;;;15.70;99.90;;;;;;4973936;28;20497;-49
2023/09/02 02:15:27;;;;;;;4.30;1.27;;;15.70;99.90;;;;;;4973941;28;20486;-48
2023/09/02 02:17:52;;;;;;;2.85;1.17;;;15.70;99.90;;;;;;4973894;28;20081;-48
2023/09/02 02:20:19;;;;;;;6.50;1.27;;;15.70;99.90;;;;;;4973809;28;20084;-47
2023/09/02 02:22:44;;;;;;;1.70;1.35;;;15.60;99.90;;;;;;4973634;28;20038;-48
2023/09/02 02:25:10;;;;;;;1.10;1.10;;;15.60;99.90;;;;;;4973777;28;20027;-50
2023/09/02 02:27:35;;;;;;;2.40;1.27;;;15.70;99.90;;;;;;4973481;28;20066;-47
2023/09/02 02:30:03;;;;;;;3.17;1.80;;;15.60;99.90;;;;;;4989851;28;20067;-46
2023/09/02 02:32:29;;;;;;;1.13;1.00;;;15.50;99.90;;;;;;4972527;28;20025;-48
2023/09/02 02:34:54;;;;;;;3.38;1.38;;;15.50;99.90;;;;;;4973556;28;20023;-47
2023/09/02 02:37:20;;;;;;;3.65;1.30;;;15.50;99.90;;;;;;4973721;28;20398;-46
2023/09/02 02:39:46;;;;;;;3.65;1.38;;;15.50;99.90;;;;;;4973477;28;20027;-49
2023/09/02 02:42:14;;;;;;;4.68;1.17;;;15.50;99.90;;;;;;4973428;28;20026;-48
2023/09/02 02:44:40;;;;;;;1.00;1.00;;;15.50;99.90;;;;;;4973442;28;20033;-49
2023/09/02 02:47:06;;;;;;;1.20;1.10;;;15.50;99.90;;;;;;4973246;28;20114;-51
2023/09/02 02:49:31;;;;;;;5.07;1.80;;;15.50;99.90;;;;;;4974441;28;20034;-49
2023/09/02 02:51:57;;;;;;;3.10;1.15;;;15.40;99.90;;;;;;4974686;28;20394;-46
2023/09/02 02:54:22;;;;;;;1.90;1.23;;;15.40;99.90;;;;;;4975080;28;20023;-46
2023/09/02 02:56:48;;;;;;;1.13;1.13;;;15.40;99.90;;;;;;4973539;28;20038;-48
2023/09/02 02:59:13;;;;;;;3.20;1.27;;;15.50;99.90;;;;;;4973190;28;20081;-46
2023/09/02 03:01:39;;;;;;;3.30;1.38;;;15.50;99.90;;;;;;4972789;28;20045;-48
2023/09/02 03:04:05;;;;;;;2.17;1.25;;;15.40;99.90;;;;;;4974356;28;20023;-49
2023/09/02 03:06:31;;;;;;;2.85;1.00;;;15.30;99.90;;;;;;4974515;28;20038;-47
2023/09/02 03:08:56;;;;;;;3.35;1.08;;;15.30;99.90;;;;;;4972954;28;20030;-52
2023/09/02 03:11:22;;;;;;;2.30;2.08;;;15.20;99.90;;;;;;4974077;28;20097;-49
2023/09/02 03:13:47;;;;;;;3.60;2.15;;;15.20;99.90;;;;;;4972888;28;20430;-48
2023/09/02 03:16:13;;;;;;;4.22;2.28;;;15.20;99.90;;;;;;4956842;28;20487;-47
2023/09/02 03:18:40;;;;;;;5.57;2.70;;;15.20;99.90;;;;;;4972706;28;20054;-47
2023/09/02 03:21:07;;;;;;;5.60;3.35;;;15.20;99.90;;;;;;4972764;28;20042;-44
2023/09/02 03:23:34;;;;;;;5.13;2.70;;;15.30;99.90;;;;;;4974085;28;20034;-45
2023/09/02 03:26:09;;;;;;;6.88;3.00;;;15.40;99.90;;;;;;4972964;28;20031;-46
2023/09/02 03:28:35;;;;;;;5.50;3.38;;;15.40;99.90;;;;;;4972702;28;20041;-49
2023/09/02 03:31:08;;;;;;;6.32;3.20;;;15.30;99.90;;;;;;4972507;28;20019;-46
2023/09/02 03:33:34;;;;;;;5.93;3.92;;;15.30;99.90;;;;;;4972511;28;20550;-49
2023/09/02 03:36:00;;;;;;;6.28;3.50;;;15.30;99.90;;;;;;4972568;28;20034;-50
2023/09/02 03:38:27;;;;;;;5.43;3.80;;;15.20;99.90;;;;;;4956507;28;20031;-48
2023/09/02 03:40:52;;;;;;;5.47;3.30;;;15.20;99.90;;;;;;4974346;28;20513;-45
2023/09/02 03:43:18;;;;;;;3.35;3.08;;;15.20;99.90;;;;;;4971824;28;20035;-50
2023/09/02 03:45:43;;;;;;;3.10;2.83;;;15.10;99.90;;;;;;4973612;28;20051;-51
2023/09/02 03:48:09;;;;;;;9.93;3.67;;;15.00;99.90;;;;;;4973455;28;20031;-46
2023/09/02 03:51:15;;;;;;;3.00;2.80;;;15.10;99.90;;;;;;4972311;28;20055;-48
2023/09/02 03:53:41;;;;;;;9.35;5.32;;;15.10;99.90;;;;;;4972138;28;20552;-48
2023/09/02 03:56:07;;;;;;;5.30;4.20;;;15.10;99.90;;;;;;4972204;28;20398;-47
2023/09/02 03:58:33;;;;;;;8.82;4.90;;;15.10;99.90;;;;;;4972149;28;20027;-47
2023/09/02 04:00:59;;;;;;;5.50;5.00;;;15.10;99.90;;;;;;4973242;28;20033;-48
2023/09/02 04:03:26;;;;;;;8.95;5.07;;;15.10;99.90;;;;;;4971920;28;20031;-47
2023/09/02 04:05:53;;;;;;;8.00;4.85;;;15.20;99.90;;;;;;4972015;28;20043;-48
2023/09/02 04:08:20;;;;;;;9.40;5.35;;;15.20;99.90;;;;;;4971642;28;20050;-46
2023/09/02 04:10:53;;;;;;;6.55;5.30;;;15.20;99.90;;;;;;4956025;28;20102;-50
2023/09/02 04:13:24;;;;;;;8.60;5.45;;;15.10;99.90;;;;;;4971804;28;20501;-50
2023/09/02 04:15:54;;;;;;;5.20;4.70;;;15.10;99.90;;;;;;4971925;28;20023;-47
2023/09/02 04:18:19;;;;;;;11.05;6.72;;;15.00;99.90;;;;;;4971677;28;20023;-47
2023/09/02 04:20:45;;;;;;;10.23;5.03;;;14.90;99.90;;;;;;4971566;28;20033;-49
2023/09/02 04:23:10;;;;;;;11.27;4.97;;;14.90;99.90;;;;;;4971598;28;20030;-47
2023/09/02 04:25:46;;;;;;;8.02;4.20;;;15.00;99.90;;;;;;4971638;28;20098;-46
2023/09/02 04:28:13;;;;;;;9.23;4.53;;;14.80;99.90;;;;;;4971379;28;20061;-47
2023/09/02 04:30:38;;;;;;;8.82;4.45;;;14.80;99.90;;;;;;4972658;28;20550;-44
2023/09/02 04:33:04;;;;;;;5.25;4.20;;;14.80;99.90;;;;;;4972249;28;20050;-47
2023/09/02 04:35:41;;;;;;;11.18;5.13;;;14.80;99.90;;;;;;4972346;28;20478;-50
2023/09/02 04:38:07;;;;;;;4.57;3.72;;;14.90;99.90;;;;;;4972145;28;20066;-46
2023/09/02 04:40:40;;;;;;;4.72;4.32;;;14.90;99.90;;;;;;4971786;28;20029;-43
2023/09/02 04:43:07;;;;;;;4.63;3.40;;;14.90;99.90;;;;;;4971822;28;20030;-47
2023/09/02 04:45:33;;;;;;;5.45;3.55;;;15.00;99.90;;;;;;4971868;28;20035;-46
2023/09/02 04:48:00;;;;;;;8.05;3.78;;;15.00;99.90;;;;;;4971888;28;20030;-48
2023/09/02 04:50:25;;;;;;;4.00;3.60;;;15.00;99.90;;;;;;4971459;28;20023;-52
2023/09/02 04:52:51;;;;;;;4.07;3.15;;;15.00;99.90;;;;;;4971260;28;20019;-47
2023/09/02 04:55:19;;;;;;;3.75;3.40;;;15.00;99.90;;;;;;4972986;28;20033;-48
2023/09/02 04:57:45;;;;;;;2.95;2.75;;;15.00;99.90;;;;;;4976547;28;20038;-48
2023/09/02 05:00:12;;;;;;;4.90;3.30;;;15.00;99.90;;;;;;4975244;28;20026;-47
2023/09/02 05:02:37;;;;;;;5.38;3.40;;;15.00;99.90;;;;;;4975134;28;20027;-50
2023/09/02 05:05:03;;;;;;;2.72;2.53;;;15.00;99.90;;;;;;4975097;28;20026;-47
2023/09/02 05:07:29;;;;;;;4.25;3.08;;;15.10;99.90;;;;;;4976380;28;20035;-46
2023/09/02 05:09:54;;;;;;;4.25;3.28;;;15.10;99.90;;;;;;4975138;28;20372;-47
2023/09/02 05:12:20;;;;;;;9.10;3.67;;;15.20;99.90;;;;;;4974892;28;20050;-48
2023/09/02 05:14:46;;;;;;;7.90;3.75;;;15.30;99.90;;;;;;4975049;28;20117;-47
2023/09/02 05:17:11;;;;;;;9.55;3.92;;;15.30;99.90;;;;;;4975005;28;20030;-47
2023/09/02 05:19:37;;;;;;;4.35;4.00;;;15.40;99.90;;;;;;4974870;28;20502;-48
2023/09/02 05:22:03;;;;;;;11.68;4.47;;;15.50;99.90;;;;;;4974883;28;20062;-46
2023/09/02 05:24:29;;;;;;;5.20;4.72;;;15.50;99.90;;;;;;4975081;28;20026;-47
2023/09/02 05:26:54;;;;;;;12.10;5.15;;;15.50;99.90;;;;;;4974744;28;20085;-50
2023/09/02 05:29:20;;;;;;;6.28;5.35;;;15.60;99.90;;;;;;4975876;28;20031;-48
2023/09/02 05:31:45;;;;;;;10.02;5.20;;;15.60;99.90;;;;;;4974288;28;20085;-52
2023/09/02 05:34:11;;;;;;;6.80;4.53;;;15.60;99.90;;;;;;4991056;28;20037;-47
2023/09/02 05:36:37;;;;;;;11.32;6.57;;;15.70;99.90;;;;;;4976090;28;20027;-49
2023/09/02 05:39:03;;;;;;;5.32;4.45;;;15.70;99.90;;;;;;4975842;28;20029;-47
2023/09/02 05:41:28;;;;;;;6.18;5.47;;;15.70;99.90;;;;;;4958472;28;20409;-51
2023/09/02 05:43:54;;;;;;;6.07;5.40;;;15.70;99.90;;;;;;4975915;28;20022;-49
2023/09/02 05:46:20;;;;;;;8.85;6.13;;;15.70;99.90;;;;;;4974603;28;20027;-49
2023/09/02 05:48:46;;;;;;;8.57;6.70;;;15.80;99.90;;;;;;4975742;28;20237;-47
2023/09/02 05:51:11;;;;;;;8.70;5.78;;;15.90;99.90;;;;;;4975501;28;20022;-48
2023/09/02 05:53:37;;;;;;;10.43;6.22;;;16.00;99.90;;;;;;4975869;28;20034;-47
2023/09/02 05:56:03;;;;;;;8.60;6.10;;;16.00;99.90;;;;;;4974327;28;20030;-48
2023/09/02 05:58:28;;;;;;;8.10;6.25;;;16.10;99.90;;;;;;4958013;28;20054;-50
2023/09/02 06:00:54;;;;;;;7.50;6.72;;;16.20;99.90;;;;;;4973980;28;20031;-47
2023/09/02 06:03:20;;;;;;;6.70;6.10;;;16.30;99.90;;;;;;4975247;28;20110;-44
2023/09/02 06:05:46;;;;;;;7.70;6.38;;;16.30;99.90;;;;;;4973908;28;20458;-45
2023/09/02 06:08:11;;;;;;;10.43;6.57;;;16.40;99.90;;;;;;4973269;28;20117;-47
2023/09/02 06:10:37;;;;;;;7.95;7.22;;;16.40;99.90;;;;;;4975363;28;20027;-47
2023/09/02 06:13:03;;;;;;;8.13;7.32;;;16.40;99.90;;;;;;4973652;28;20031;-46
2023/09/02 06:15:28;;;;;;;9.43;6.60;;;16.50;99.90;;;;;;4975240;28;20566;-45
2023/09/02 06:17:54;;;;;;;9.35;7.25;;;16.50;99.90;;;;;;4973835;28;20118;-48
2023/09/02 06:20:22;;;;;;;8.63;7.70;;;16.60;99.90;;;;;;4973727;28;20027;-47
2023/09/02 06:22:47;;;;;;;11.15;8.15;;;16.60;99.90;;;;;;4957428;28;20093;-51
2023/09/02 06:25:13;;;;;;;17.80;9.07;;;16.60;99.90;;;;;;4973822;28;20023;-49
2023/09/02 06:27:38;;;;;;;10.25;8.70;;;16.70;99.90;;;;;;4998760;23;20089;-44
2023/09/02 06:30:05;;;;;;;9.63;8.63;;;16.60;99.90;;;;;;5010195;28;20037;-41
2023/09/02 06:32:31;;;;;;;11.60;9.77;;;16.60;99.90;;;;;;5009636;28;20014;-44
2023/09/02 06:34:57;;;;;;;13.23;10.25;;;16.60;99.90;;;;;;5012383;28;20452;-46
2023/09/02 06:37:23;;;;;;;13.45;10.60;;;16.50;99.90;;;;;;5013530;28;20026;-47
2023/09/02 06:39:55;;;;;;;13.57;11.18;;;16.50;99.90;;;;;;5012420;28;20079;-45
2023/09/02 06:42:22;;;;;;;12.68;9.75;;;16.60;99.90;;;;;;5012504;28;20018;-46
2023/09/02 06:44:52;;;;;;;13.60;10.98;;;16.60;99.90;;;;;;5013217;28;20172;-47
2023/09/02 06:47:18;;;;;;;17.40;10.95;;;16.60;99.90;;;;;;5013950;28;20033;-48
2023/09/02 06:49:43;;;;;;;12.15;10.07;;;16.60;99.90;;;;;;5012096;28;20018;-45
2023/09/02 06:52:09;;;;;;;16.00;10.95;;;16.60;99.90;;;;;;5010482;28;20485;-45
2023/09/02 06:54:34;;;;;;;11.85;10.40;;;16.60;99.90;;;;;;5013395;28;20037;-45
2023/09/02 06:57:00;;;;;;;10.88;9.13;;;16.70;99.90;;;;;;5012551;28;20021;-46
2023/09/02 06:59:25;;;;;;;11.73;9.82;;;16.70;99.90;;;;;;5011725;28;20120;-47
2023/09/02 07:01:52;;;;;;;11.15;9.73;;;16.80;99.90;;;;;;5012024;28;20054;-49
2023/09/02 07:04:17;;;;;;;11.35;9.88;;;16.80;99.90;;;;;;5013414;28;20029;-47
2023/09/02 07:06:43;;;;;;;10.45;9.35;;;16.80;99.90;;;;;;5013189;28;20026;-48
2023/09/02 07:09:09;;;;;;;15.50;10.70;;;16.90;99.90;;;;;;5013241;28;20021;-47
2023/09/02 07:11:34;;;;;;;12.10;10.02;;;16.80;99.90;;;;;;5012997;28;20245;-45
2023/09/02 07:14:00;;;;;;;11.00;9.32;;;16.90;99.90;;;;;;5011791;28;20049;-45
2023/09/02 07:16:26;;;;;;;15.52;11.38;;;16.90;99.90;;;;;;5012242;28;20064;-47
2023/09/02 07:18:52;;;;;;;12.73;10.85;;;16.90;99.90;;;;;;4995260;28;20044;-46
2023/09/02 07:21:22;;;;;;;12.18;10.10;;;16.80;99.90;;;;;;5012721;28;20026;-46
2023/09/02 07:23:48;;;;;;;11.40;10.20;;;16.80;99.90;;;;;;5011787;28;20025;-49
2023/09/02 07:26:14;;;;;;;10.95;9.38;;;16.80;99.90;;;;;;4995518;28;20113;-50
2023/09/02 07:28:41;;;;;;;10.18;9.07;;;16.90;99.90;;;;;;5011609;28;20116;-46
2023/09/02 07:31:07;;;;;;;13.27;9.55;;;16.90;99.90;;;;;;4995511;28;20112;-47
2023/09/02 07:33:33;;;;;;;9.93;9.00;;;16.90;99.90;;;;;;5011934;28;20389;-48
2023/09/02 07:36:05;;;;;;;10.38;7.97;;;16.80;99.90;;;;;;5011758;28;20549;-46
2023/09/02 07:38:31;;;;;;;12.18;8.93;;;16.70;99.90;;;;;;4997335;28;20025;-51
2023/09/02 07:40:56;;;;;;;9.63;8.70;;;16.70;99.90;;;;;;5016067;28;20092;-52
2023/09/02 07:43:22;;;;;;;9.68;8.75;;;16.70;99.90;;;;;;5014393;28;20026;-56
2023/09/02 07:45:48;;;;;;;9.60;8.00;;;16.70;99.90;;;;;;5014736;28;20030;-49
2023/09/02 07:48:13;;;;;;;7.95;7.25;;;16.60;99.90;;;;;;5016064;28;20546;-52
2023/09/02 07:50:39;;;;;;;8.00;7.30;;;16.60;99.90;;;;;;5012125;28;20029;-47
2023/09/02 07:53:04;;;;;;;9.55;8.63;;;16.60;99.90;;;;;;5010734;28;20430;-50
2023/09/02 07:55:30;;;;;;;7.90;7.20;;;16.60;99.90;;;;;;5009413;28;20184;-47
2023/09/02 07:57:57;;;;;;;10.85;7.05;;;16.70;99.90;;;;;;5011095;28;20088;-48
2023/09/02 08:00:22;;;;;;;9.38;7.88;;;16.90;99.90;;;;;;5010444;28;20509;-47
2023/09/02 08:02:48;;;;;;;7.93;7.18;;;17.00;99.90;;;;;;4994607;28;20034;-46
2023/09/02 08:05:14;;;;;;;6.47;5.97;;;17.10;99.90;;;;;;5011091;28;20034;-46
2023/09/02 08:07:40;;;;;;;7.47;6.82;;;17.20;99.90;;;;;;5010930;28;20030;-46
2023/09/02 08:10:06;;;;;;;6.72;6.00;;;17.30;99.90;;;;;;5010420;28;20040;-49
2023/09/02 08:12:31;;;;;;;14.13;6.55;;;17.50;99.90;;;;;;5010610;28;20018;-48
2023/09/02 08:14:57;;;;;;;8.15;6.90;;;17.60;99.90;;;;;;5010287;28;20037;-47
2023/09/02 08:17:23;;;;;;;7.65;6.75;;;17.60;99.90;;;;;;5010962;28;20117;-48
2023/09/02 08:19:48;;;;;;;6.32;5.72;;;17.50;99.90;;;;;;5010795;28;20030;-46
2023/09/02 08:22:14;;;;;;;6.88;5.65;;;17.50;99.90;;;;;;5011868;28;20064;-48
2023/09/02 08:24:39;;;;;;;7.32;5.93;;;17.60;99.90;;;;;;5010755;28;20554;-47
2023/09/02 08:27:05;;;;;;;6.20;5.53;;;17.70;99.90;;;;;;5010069;28;20034;-46
2023/09/02 08:29:30;;;;;;;6.07;5.47;;;17.70;99.90;;;;;;5009668;28;20064;-49
2023/09/02 08:31:56;;;;;;;6.65;4.95;;;18.00;99.90;;;;;;5010202;28;20029;-50
2023/09/02 08:34:22;;;;;;;4.88;4.47;;;18.00;99.90;;;;;;5011983;28;20532;-48
2023/09/02 08:36:47;;;;;;;4.43;4.03;;;18.20;99.90;;;;;;5010682;28;20026;-48
2023/09/02 08:39:13;;;;;;;4.68;3.85;;;18.30;99.90;;;;;;5009664;28;20026;-46
2023/09/02 08:41:41;;;;;;;7.43;4.25;;;18.50;99.90;;;;;;5010200;28;20057;-47
2023/09/02 08:44:09;;;;;;;4.93;4.00;;;18.60;99.90;;;;;;5010176;28;20030;-44
2023/09/02 08:46:40;;;;;;;3.95;3.63;;;18.60;99.90;;;;;;4993903;28;20084;-44
2023/09/02 08:49:05;;;;;;;4.25;3.50;;;18.60;99.90;;;;;;4989524;28;20118;-45
2023/09/02 08:51:33;;;;;;;3.72;3.42;;;18.70;99.90;;;;;;4990458;28;20109;-44
2023/09/02 08:53:59;;;;;;;4.20;3.60;;;19.00;99.90;;;;;;4982912;28;20034;-45
2023/09/02 08:56:26;;;;;;;2.40;2.20;;;19.50;99.90;;;;;;5010174;28;20022;-45
2023/09/02 08:58:54;;;;;;;3.83;2.53;;;20.00;99.90;;;;;;4992959;28;20030;-46
2023/09/02 09:01:20;;;;;;;3.33;2.35;;;20.40;99.90;;;;;;5010041;28;20485;-45
2023/09/02 09:03:54;;;;;;;3.67;2.60;;;20.70;99.90;;;;;;5010360;28;20080;-45
2023/09/02 09:06:22;;;;;;;3.13;2.90;;;21.00;99.90;;;;;;5010425;28;20026;-45
2023/09/02 09:08:50;;;;;;;2.78;2.58;;;21.20;99.90;;;;;;4993629;28;20026;-44
2023/09/02 09:11:19;;;;;;;2.75;2.58;;;21.50;99.90;;;;;;5009984;28;20022;-47
2023/09/02 09:13:46;;;;;;;2.97;2.55;;;21.80;99.90;;;;;;5009792;28;20034;-44
2023/09/02 09:16:31;;;;;;;2.80;2.45;;;22.20;99.90;;;;;;5011710;28;20057;-48
2023/09/02 09:18:57;;;;;;;3.00;2.50;;;22.50;99.90;;;;;;5011367;28;20065;-46
2023/09/02 09:21:23;;;;;;;2.72;2.35;;;22.70;99.90;;;;;;5011059;28;20033;-47
2023/09/02 09:23:49;;;;;;;4.50;2.00;;;22.90;99.90;;;;;;5011187;28;20089;-45
2023/09/02 09:26:15;;;;;;;1.67;1.58;;;23.00;99.90;;;;;;5010071;28;20030;-47
2023/09/02 09:28:54;;;;;;;2.47;2.28;;;23.30;99.90;;;;;;5009464;28;20045;-46
2023/09/02 09:31:21;;;;;;;2.42;1.90;;;23.20;99.90;;;;;;5011081;28;20032;-49
2023/09/02 09:33:54;;;;;;;4.50;1.77;;;23.50;99.90;;;;;;5011049;28;20020;-48
2023/09/02 09:36:23;;;;;;;6.60;2.00;;;23.60;99.90;;;;;;5011481;28;20029;-48
2023/09/02 09:39:03;;;;;;;1.70;1.60;;;23.80;99.90;;;;;;5009631;28;20022;-48
2023/09/02 09:41:29;;;;;;;1.85;1.40;;;23.80;99.90;;;;;;5011322;28;20034;-45
2023/09/02 09:44:04;;;;;;;6.30;2.67;;;23.90;99.90;;;;;;5014622;28;20037;-47
2023/09/02 09:46:48;;;;;;;3.05;1.80;;;24.00;99.90;;;;;;5015135;28;20030;-48
2023/09/02 09:49:25;;;;;;;6.07;1.90;;;23.90;99.90;;;;;;5013511;28;20240;-49
2023/09/02 09:52:12;;;;;;;1.88;1.33;;;23.80;99.90;;;;;;5013547;28;20034;-48
2023/09/02 09:54:45;;;;;;;3.55;1.50;;;23.50;99.90;;;;;;5014450;28;20038;-47
2023/09/02 09:57:32;;;;;;;4.47;1.30;;;23.60;99.90;;;;;;4997806;28;20026;-45
2023/09/02 09:59:58;;;;;;;2.67;1.52;;;23.70;99.90;;;;;;5014253;28;20034;-46
2023/09/02 10:02:24;;;;;;;5.68;4.22;;;23.90;99.90;;;;;;4996685;28;20129;-44
2023/09/02 10:04:52;;;;;;;2.88;2.67;;;24.00;99.90;;;;;;5014531;28;20048;-47
2023/09/02 10:07:31;;;;;;;2.08;1.27;;;24.00;99.90;;;;;;5014078;28;20021;-44
2023/09/02 10:09:59;;;;;;;1.52;1.10;;;24.00;99.90;;;;;;5014110;28;20034;-45
2023/09/02 10:12:25;;;;;;;2.95;1.77;;;23.60;99.90;;;;;;5014115;28;20446;-44
2023/09/02 10:14:51;;;;;;;8.63;2.05;;;23.70;99.90;;;;;;5013876;28;20108;-46
2023/09/02 10:17:17;;;;;;;1.70;1.60;;;23.60;99.90;;;;;;5013410;28;20030;-47
2023/09/02 10:19:45;;;;;;;4.47;1.75;;;23.50;99.90;;;;;;4996697;28;20076;-46
2023/09/02 10:22:18;;;;;;;2.67;1.88;;;23.50;99.90;;;;;;5012806;28;20068;-45
2023/09/02 10:24:48;;;;;;;2.22;2.00;;;23.50;99.90;;;;;;5012089;28;20045;-45
2023/09/02 10:27:21;;;;;;;1.90;1.80;;;23.50;99.90;;;;;;5012232;28;20065;-47
2023/09/02 10:29:55;;;;;;;3.00;1.80;;;23.50;99.90;;;;;;5013320;28;20494;-44
2023/09/02 10:32:28;;;;;;;1.42;1.42;;;23.60;99.90;;;;;;4996174;28;20121;-47
2023/09/02 10:35:22;;;;;;;1.65;1.50;;;23.40;99.90;;;;;;5015034;28;20021;-46
2023/09/02 10:37:54;;;;;;;1.40;1.13;;;23.30;99.90;;;;;;5013599;28;20040;-47
2023/09/02 10:40:24;;;;;;;3.38;1.60;;;23.30;99.90;;;;;;5010390;28;20038;-45
2023/09/02 10:42:51;;;;;;;3.05;1.85;;;23.30;99.90;;;;;;5012421;28;20033;-45
2023/09/02 10:45:20;;;;;;;1.98;1.70;;;23.40;99.90;;;;;;5012358;28;20033;-45
2023/09/02 10:47:47;;;;;;;1.83;1.55;;;23.30;99.90;;;;;;5012461;28;20022;-47
2023/09/02 10:50:20;;;;;;;1.50;1.23;;;23.30;99.90;;;;;;5013303;28;20113;-46
2023/09/02 10:52:46;;;;;;;1.67;1.52;;;23.30;99.90;;;;;;4995196;28;20378;-46
2023/09/02 10:55:12;;;;;;;1.45;1.45;;;23.30;99.90;;;;;;5011878;28;20404;-46
2023/09/02 10:57:49;;;;;;;3.03;2.00;;;23.20;99.90;;;;;;5013913;28;20026;-46
2023/09/02 11:00:18;;;;;;;3.25;1.77;;;23.20;99.90;;;;;;5013377;28;20052;-50
2023/09/02 11:02:45;;;;;;;3.20;1.58;;;23.30;99.90;;;;;;4995976;28;20060;-49
2023/09/02 11:05:11;;;;;;;1.90;1.80;;;23.20;99.90;;;;;;4992278;28;20035;-48
2023/09/02 11:07:39;;;;;;;1.83;1.73;;;23.30;99.90;;;;;;4993869;28;20485;-46
2023/09/02 11:10:06;;;;;;;1.60;1.50;;;23.20;99.90;;;;;;5012044;28;20037;-47
2023/09/02 11:12:33;;;;;;;1.55;1.45;;;23.20;99.90;;;;;;5011998;28;20022;-50
2023/09/02 11:15:08;;;;;;;5.10;2.00;;;23.30;99.90;;;;;;4991222;28;20030;-46
2023/09/02 11:17:35;;;;;;;3.33;2.40;;;23.10;99.90;;;;;;5005131;28;20386;-49
2023/09/02 11:20:01;;;;;;;6.15;2.38;;;23.20;99.90;;;;;;4995495;28;20033;-48
2023/09/02 11:22:52;;;;;;;2.30;2.10;;;23.10;99.90;;;;;;5013110;28;20405;-49
2023/09/02 11:25:37;;;;;;;2.55;1.70;;;23.20;99.90;;;;;;5013121;28;20029;-46
2023/09/02 11:28:22;;;;;;;1.48;1.38;;;23.10;99.90;;;;;;5012659;28;20026;-49
2023/09/02 11:31:09;;;;;;;3.70;1.83;;;23.10;99.90;;;;;;5001110;28;20052;-48
2023/09/02 11:33:40;;;;;;;1.83;1.73;;;23.20;99.90;;;;;;5010758;28;20026;-47
2023/09/02 11:36:16;;;;;;;1.60;1.50;;;23.20;99.90;;;;;;5011101;28;20112;-51
2023/09/02 11:38:42;;;;;;;1.10;1.10;;;23.00;99.90;;;;;;4991919;28;20435;-46
2023/09/02 11:41:08;;;;;;;1.55;1.52;;;23.10;99.90;;;;;;4997903;28;20073;-48
2023/09/02 11:43:36;;;;;;;1.33;1.27;;;23.10;99.90;;;;;;5011269;28;20444;-47
2023/09/02 11:46:03;;;;;;;2.03;1.90;;;23.20;99.90;;;;;;5012491;28;20152;-47
2023/09/02 11:48:29;;;;;;;3.20;1.77;;;23.10;99.90;;;;;;5012296;28;20071;-45
2023/09/02 11:50:58;;;;;;;1.50;1.40;;;23.20;99.90;;;;;;5011233;28;20108;-51
2023/09/02 11:53:31;;;;;;;1.95;1.85;;;23.10;99.90;;;;;;5012180;28;20397;-48
2023/09/02 11:55:57;;;;;;;2.03;1.80;;;23.10;99.90;;;;;;4995258;28;20053;-46
2023/09/02 11:58:23;;;;;;;3.80;1.85;;;23.00;99.90;;;;;;5011014;28;20030;-46
2023/09/02 12:00:49;;;;;;;3.20;1.90;;;23.10;99.90;;;;;;4994540;28;20393;-46
2023/09/02 12:03:28;;;;;;;1.50;1.40;;;23.00;99.90;;;;;;4994372;28;20037;-47
2023/09/02 12:05:59;;;;;;;1.67;1.58;;;23.00;99.90;;;;;;5010157;28;20417;-48
2023/09/02 12:08:26;;;;;;;1.77;1.48;;;23.00;99.90;;;;;;5011826;28;20041;-48
2023/09/02 12:10:52;;;;;;;1.40;1.40;;;23.10;99.90;;;;;;5010747;28;21216;-47
2023/09/02 12:13:18;;;;;;;1.40;1.30;;;23.30;99.90;;;;;;5011424;28;20059;-49
2023/09/02 12:15:51;;;;;;;2.13;1.70;;;23.30;99.90;;;;;;5010906;28;20501;-48
2023/09/02 12:18:19;;;;;;;3.83;1.33;;;23.30;99.90;;;;;;5010492;28;20441;-46
2023/09/02 12:20:45;;;;;;;1.95;1.75;;;23.30;99.90;;;;;;4993818;28;20116;-46
2023/09/02 12:23:11;;;;;;;1.55;1.45;;;23.40;99.90;;;;;;5010844;28;20026;-47
2023/09/02 12:25:38;;;;;;;2.53;1.30;;;23.50;99.90;;;;;;5010114;28;20030;-48
2023/09/02 12:28:14;;;;;;;1.40;1.30;;;23.50;99.90;;;;;;5011158;28;20038;-45
2023/09/02 12:30:46;;;;;;;5.22;1.33;;;23.60;99.90;;;;;;5031288;23;20061;-46
2023/09/02 12:33:11;;;;;;;1.92;1.27;;;23.60;99.90;;;;;;4994105;28;20068;-48
2023/09/02 12:35:37;;;;;;;1.02;1.02;;;23.70;99.90;;;;;;4994129;28;20026;-48
2023/09/02 12:38:09;;;;;;;6.97;5.25;;;23.70;99.90;;;;;;4993629;28;20517;-52
2023/09/02 12:40:35;;;;;;;4.60;2.90;;;23.70;99.90;;;;;;5010703;28;20084;-49
2023/09/02 12:43:02;;;;;;;2.45;1.70;;;23.80;99.90;;;;;;5010261;28;20030;-47
2023/09/02 12:45:31;;;;;;;1.08;1.08;;;23.80;99.90;;;;;;5004859;28;20026;-48
2023/09/02 12:47:59;;;;;;;5.97;1.20;;;23.80;99.90;;;;;;5011723;28;20024;-48
2023/09/02 12:50:26;;;;;;;1.48;1.25;;;23.80;99.90;;;;;;5006053;28;20051;-48